sensor_id;sensor_type;location;lat;lon;timestamp;temperature;humidity
73121;DHT22;61307;49.628;-1.624;2023-03-11T00:01:46;18.40;37.10
73121;DHT22;61307;49.628;-1.624;2023-03-11T00:04:14;18.40;37.10
73121;DHT22;61307;49.628;-1.624;2023-03-11T00:06:41;18.40;37.10
73121;DHT22;61307;49.628;-1.624;2023-03-11T00:09:09;18.40;37.10
73121;DHT22;61307;49.628;-1.624;2023-03-11T00:11:36;18.40;37.10
73121;DHT22;61307;49.628;-1.624;2023-03-11T00:14:04;18.40;37.20
73121;DHT22;61307;49.628;-1.624;2023-03-11T00:16:31;18.40;37.20
73121;DHT22;61307;49.628;-1.624;2023-03-11T00:18:58;18.30;37.10
73121;DHT22;61307;49.628;-1.624;2023-03-11T00:21:25;18.30;37.10
73121;DHT22;61307;49.628;-1.624;2023-03-11T00:23:52;18.30;37.80
73121;DHT22;61307;49.628;-1.624;2023-03-11T00:26:20;18.30;37.10
73121;DHT22;61307;49.628;-1.624;2023-03-11T00:28:47;18.30;37.20
73121;DHT22;61307;49.628;-1.624;2023-03-11T00:31:14;18.30;37.20
73121;DHT22;61307;49.628;-1.624;2023-03-11T00:33:42;18.30;37.20
73121;DHT22;61307;49.628;-1.624;2023-03-11T00:36:19;18.30;37.20
73121;DHT22;61307;49.628;-1.624;2023-03-11T00:38:47;18.30;37.30
73121;DHT22;61307;49.628;-1.624;2023-03-11T00:41:14;18.30;37.30
73121;DHT22;61307;49.628;-1.624;2023-03-11T00:43:42;18.30;37.40
73121;DHT22;61307;49.628;-1.624;2023-03-11T00:46:09;18.30;37.40
73121;DHT22;61307;49.628;-1.624;2023-03-11T00:48:37;18.30;37.40
73121;DHT22;61307;49.628;-1.624;2023-03-11T00:51:06;18.30;37.30
73121;DHT22;61307;49.628;-1.624;2023-03-11T00:53:33;18.30;37.40
73121;DHT22;61307;49.628;-1.624;2023-03-11T00:56:05;18.20;37.30
73121;DHT22;61307;49.628;-1.624;2023-03-11T00:58:33;18.20;37.30
73121;DHT22;61307;49.628;-1.624;2023-03-11T01:01:06;18.20;37.40
73121;DHT22;61307;49.628;-1.624;2023-03-11T01:03:34;18.20;37.40
73121;DHT22;61307;49.628;-1.624;2023-03-11T01:06:01;18.20;37.40
73121;DHT22;61307;49.628;-1.624;2023-03-11T01:08:28;18.20;37.50
73121;DHT22;61307;49.628;-1.624;2023-03-11T01:10:56;18.20;37.40
73121;DHT22;61307;49.628;-1.624;2023-03-11T01:13:24;18.20;37.50
73121;DHT22;61307;49.628;-1.624;2023-03-11T01:15:51;18.20;37.50
73121;DHT22;61307;49.628;-1.624;2023-03-11T01:18:20;18.20;37.50
73121;DHT22;61307;49.628;-1.624;2023-03-11T01:20:47;18.20;37.50
73121;DHT22;61307;49.628;-1.624;2023-03-11T01:23:16;18.10;37.50
73121;DHT22;61307;49.628;-1.624;2023-03-11T01:25:43;18.20;37.60
73121;DHT22;61307;49.628;-1.624;2023-03-11T01:28:10;18.10;37.50
73121;DHT22;61307;49.628;-1.624;2023-03-11T01:30:39;18.20;37.60
73121;DHT22;61307;49.628;-1.624;2023-03-11T01:33:10;18.10;37.50
73121;DHT22;61307;49.628;-1.624;2023-03-11T01:35:40;18.10;37.50
73121;DHT22;61307;49.628;-1.624;2023-03-11T01:38:08;18.10;37.50
73121;DHT22;61307;49.628;-1.624;2023-03-11T01:40:37;18.10;37.50
73121;DHT22;61307;49.628;-1.624;2023-03-11T01:43:33;18.20;37.70
73121;DHT22;61307;49.628;-1.624;2023-03-11T01:46:09;18.10;37.60
73121;DHT22;61307;49.628;-1.624;2023-03-11T01:48:37;18.10;37.60
73121;DHT22;61307;49.628;-1.624;2023-03-11T01:51:06;18.10;37.60
73121;DHT22;61307;49.628;-1.624;2023-03-11T01:53:33;18.10;37.70
73121;DHT22;61307;49.628;-1.624;2023-03-11T01:56:02;18.10;37.70
73121;DHT22;61307;49.628;-1.624;2023-03-11T01:58:33;18.10;37.70
73121;DHT22;61307;49.628;-1.624;2023-03-11T02:01:02;18.10;37.70
73121;DHT22;61307;49.628;-1.624;2023-03-11T02:03:31;18.10;37.70
73121;DHT22;61307;49.628;-1.624;2023-03-11T02:06:00;18.10;37.70
73121;DHT22;61307;49.628;-1.624;2023-03-11T02:08:30;18.10;37.80
73121;DHT22;61307;49.628;-1.624;2023-03-11T02:11:00;18.00;37.70
73121;DHT22;61307;49.628;-1.624;2023-03-11T02:13:28;18.10;38.30
73121;DHT22;61307;49.628;-1.624;2023-03-11T02:15:56;18.10;37.80
73121;DHT22;61307;49.628;-1.624;2023-03-11T02:18:25;18.00;37.70
73121;DHT22;61307;49.628;-1.624;2023-03-11T02:20:58;18.00;37.70
73121;DHT22;61307;49.628;-1.624;2023-03-11T02:23:35;18.00;37.70
73121;DHT22;61307;49.628;-1.624;2023-03-11T02:26:08;18.00;37.80
73121;DHT22;61307;49.628;-1.624;2023-03-11T02:28:41;18.00;37.80
73121;DHT22;61307;49.628;-1.624;2023-03-11T02:31:09;18.00;37.80
73121;DHT22;61307;49.628;-1.624;2023-03-11T02:33:37;18.00;37.80
73121;DHT22;61307;49.628;-1.624;2023-03-11T02:36:04;18.00;37.80
73121;DHT22;61307;49.628;-1.624;2023-03-11T02:38:32;18.00;37.80
73121;DHT22;61307;49.628;-1.624;2023-03-11T02:41:00;18.00;37.80
73121;DHT22;61307;49.628;-1.624;2023-03-11T02:43:32;18.00;37.80
73121;DHT22;61307;49.628;-1.624;2023-03-11T02:46:04;18.00;37.90
73121;DHT22;61307;49.628;-1.624;2023-03-11T02:48:33;17.90;37.80
73121;DHT22;61307;49.628;-1.624;2023-03-11T02:51:01;17.90;37.80
73121;DHT22;61307;49.628;-1.624;2023-03-11T02:53:32;17.90;37.80
73121;DHT22;61307;49.628;-1.624;2023-03-11T02:56:01;17.90;37.80
73121;DHT22;61307;49.628;-1.624;2023-03-11T02:58:28;17.90;37.80
73121;DHT22;61307;49.628;-1.624;2023-03-11T03:00:55;17.90;37.80
73121;DHT22;61307;49.628;-1.624;2023-03-11T03:03:24;17.90;37.90
73121;DHT22;61307;49.628;-1.624;2023-03-11T03:05:51;17.90;37.80
73121;DHT22;61307;49.628;-1.624;2023-03-11T03:08:18;17.90;37.90
73121;DHT22;61307;49.628;-1.624;2023-03-11T03:10:45;17.90;37.90
73121;DHT22;61307;49.628;-1.624;2023-03-11T03:13:12;17.90;37.90
73121;DHT22;61307;49.628;-1.624;2023-03-11T03:15:39;17.90;37.90
73121;DHT22;61307;49.628;-1.624;2023-03-11T03:18:06;17.90;37.90
73121;DHT22;61307;49.628;-1.624;2023-03-11T03:20:35;17.90;38.00
73121;DHT22;61307;49.628;-1.624;2023-03-11T03:23:02;17.90;38.00
73121;DHT22;61307;49.628;-1.624;2023-03-11T03:25:29;17.90;38.00
73121;DHT22;61307;49.628;-1.624;2023-03-11T15:10:09;19.90;41.20
73121;DHT22;61307;49.628;-1.624;2023-03-11T15:12:40;20.00;41.30
73121;DHT22;61307;49.628;-1.624;2023-03-11T15:15:22;20.00;41.40
73121;DHT22;61307;49.628;-1.624;2023-03-11T15:17:55;20.00;41.30
73121;DHT22;61307;49.628;-1.624;2023-03-11T15:20:39;20.00;41.30
73121;DHT22;61307;49.628;-1.624;2023-03-11T15:23:18;20.10;41.40
73121;DHT22;61307;49.628;-1.624;2023-03-11T15:25:49;20.10;41.50
73121;DHT22;61307;49.628;-1.624;2023-03-11T15:28:21;20.10;41.40
73121;DHT22;61307;49.628;-1.624;2023-03-11T15:30:50;20.10;41.40
73121;DHT22;61307;49.628;-1.624;2023-03-11T15:33:22;20.10;41.50
73121;DHT22;61307;49.628;-1.624;2023-03-11T15:35:49;20.10;41.50
73121;DHT22;61307;49.628;-1.624;2023-03-11T15:38:21;20.20;41.60
73121;DHT22;61307;49.628;-1.624;2023-03-11T15:40:57;20.20;41.60
73121;DHT22;61307;49.628;-1.624;2023-03-11T15:43:27;20.20;42.00
73121;DHT22;61307;49.628;-1.624;2023-03-11T15:45:59;20.30;41.90
73121;DHT22;61307;49.628;-1.624;2023-03-11T15:48:29;20.30;41.80
73121;DHT22;61307;49.628;-1.624;2023-03-11T15:51:05;20.30;41.70
73121;DHT22;61307;49.628;-1.624;2023-03-11T15:53:40;20.30;41.80
73121;DHT22;61307;49.628;-1.624;2023-03-11T15:56:15;20.30;41.70
73121;DHT22;61307;49.628;-1.624;2023-03-11T15:58:50;20.30;41.60
73121;DHT22;61307;49.628;-1.624;2023-03-11T16:01:18;20.30;41.60
73121;DHT22;61307;49.628;-1.624;2023-03-11T16:03:48;20.30;41.60
73121;DHT22;61307;49.628;-1.624;2023-03-11T16:06:15;20.20;41.60
73121;DHT22;61307;49.628;-1.624;2023-03-11T16:08:42;20.20;41.60
73121;DHT22;61307;49.628;-1.624;2023-03-11T16:11:12;20.30;41.60
73121;DHT22;61307;49.628;-1.624;2023-03-11T16:13:40;20.30;41.60
73121;DHT22;61307;49.628;-1.624;2023-03-11T16:16:10;20.30;41.60
73121;DHT22;61307;49.628;-1.624;2023-03-11T16:18:40;20.30;41.60
73121;DHT22;61307;49.628;-1.624;2023-03-11T16:21:09;20.30;42.00
73121;DHT22;61307;49.628;-1.624;2023-03-11T16:23:39;20.30;42.00
73121;DHT22;61307;49.628;-1.624;2023-03-11T16:26:10;20.30;42.00
73121;DHT22;61307;49.628;-1.624;2023-03-11T16:28:38;20.30;41.90
73121;DHT22;61307;49.628;-1.624;2023-03-11T16:31:06;20.30;41.80
73121;DHT22;61307;49.628;-1.624;2023-03-11T16:33:34;20.30;41.90
73121;DHT22;61307;49.628;-1.624;2023-03-11T16:36:01;20.30;41.90
73121;DHT22;61307;49.628;-1.624;2023-03-11T16:38:29;20.30;41.80
73121;DHT22;61307;49.628;-1.624;2023-03-11T16:40:57;20.30;41.90
73121;DHT22;61307;49.628;-1.624;2023-03-11T16:43:26;20.30;41.90
73121;DHT22;61307;49.628;-1.624;2023-03-11T16:45:55;20.30;41.90
73121;DHT22;61307;49.628;-1.624;2023-03-11T16:48:22;20.30;41.90
73121;DHT22;61307;49.628;-1.624;2023-03-11T16:50:50;20.30;41.90
73121;DHT22;61307;49.628;-1.624;2023-03-11T16:53:17;20.30;41.90
73121;DHT22;61307;49.628;-1.624;2023-03-11T16:55:47;20.30;41.90
73121;DHT22;61307;49.628;-1.624;2023-03-11T16:58:14;20.30;41.90
73121;DHT22;61307;49.628;-1.624;2023-03-11T17:00:41;20.30;41.90
73121;DHT22;61307;49.628;-1.624;2023-03-11T17:03:11;20.30;42.00
73121;DHT22;61307;49.628;-1.624;2023-03-11T17:05:38;20.30;42.20
73121;DHT22;61307;49.628;-1.624;2023-03-11T17:08:06;20.30;42.20
73121;DHT22;61307;49.628;-1.624;2023-03-11T17:10:35;20.20;42.10
73121;DHT22;61307;49.628;-1.624;2023-03-11T17:13:03;20.30;42.30
73121;DHT22;61307;49.628;-1.624;2023-03-11T17:15:30;20.30;42.20
73121;DHT22;61307;49.628;-1.624;2023-03-11T17:17:59;20.20;42.10
73121;DHT22;61307;49.628;-1.624;2023-03-11T17:20:27;20.20;42.10
73121;DHT22;61307;49.628;-1.624;2023-03-11T17:22:54;20.20;42.10
73121;DHT22;61307;49.628;-1.624;2023-03-11T17:25:21;20.20;42.10
73121;DHT22;61307;49.628;-1.624;2023-03-11T17:27:49;20.20;42.10
73121;DHT22;61307;49.628;-1.624;2023-03-11T17:30:16;20.20;42.10
73121;DHT22;61307;49.628;-1.624;2023-03-11T17:32:44;20.20;42.20
73121;DHT22;61307;49.628;-1.624;2023-03-11T17:35:11;20.10;42.10
73121;DHT22;61307;49.628;-1.624;2023-03-11T17:37:40;20.10;42.10
73121;DHT22;61307;49.628;-1.624;2023-03-11T17:40:08;20.20;42.10
73121;DHT22;61307;49.628;-1.624;2023-03-11T17:42:37;20.10;42.10
73121;DHT22;61307;49.628;-1.624;2023-03-11T17:45:06;20.20;42.10
73121;DHT22;61307;49.628;-1.624;2023-03-11T17:47:33;20.10;42.10
73121;DHT22;61307;49.628;-1.624;2023-03-11T17:50:01;20.10;42.10
73121;DHT22;61307;49.628;-1.624;2023-03-11T17:52:29;20.10;42.10
73121;DHT22;61307;49.628;-1.624;2023-03-11T17:54:57;20.10;42.10
73121;DHT22;61307;49.628;-1.624;2023-03-11T17:57:24;20.10;42.10
73121;DHT22;61307;49.628;-1.624;2023-03-11T17:59:51;20.10;42.10
73121;DHT22;61307;49.628;-1.624;2023-03-11T18:02:19;20.10;42.00
73121;DHT22;61307;49.628;-1.624;2023-03-11T18:04:49;20.10;42.10
73121;DHT22;61307;49.628;-1.624;2023-03-11T18:07:17;20.10;42.10
73121;DHT22;61307;49.628;-1.624;2023-03-11T18:09:49;20.10;42.10
73121;DHT22;61307;49.628;-1.624;2023-03-11T18:12:18;20.10;42.10
73121;DHT22;61307;49.628;-1.624;2023-03-11T18:14:46;20.10;42.00
73121;DHT22;61307;49.628;-1.624;2023-03-11T18:17:13;20.10;42.00
73121;DHT22;61307;49.628;-1.624;2023-03-11T18:19:40;20.10;42.00
73121;DHT22;61307;49.628;-1.624;2023-03-11T18:22:07;20.00;42.00
73121;DHT22;61307;49.628;-1.624;2023-03-11T18:24:34;20.10;42.10
73121;DHT22;61307;49.628;-1.624;2023-03-11T18:27:01;20.10;42.10
73121;DHT22;61307;49.628;-1.624;2023-03-11T18:29:30;20.10;42.10
73121;DHT22;61307;49.628;-1.624;2023-03-11T18:31:57;20.10;42.10
73121;DHT22;61307;49.628;-1.624;2023-03-11T18:34:24;20.00;42.00
73121;DHT22;61307;49.628;-1.624;2023-03-11T18:36:51;20.00;42.00
73121;DHT22;61307;49.628;-1.624;2023-03-11T18:39:18;20.10;42.10
73121;DHT22;61307;49.628;-1.624;2023-03-11T18:41:45;20.00;42.00
73121;DHT22;61307;49.628;-1.624;2023-03-11T18:44:13;20.00;42.10
73121;DHT22;61307;49.628;-1.624;2023-03-11T18:46:41;20.00;42.10
73121;DHT22;61307;49.628;-1.624;2023-03-11T18:49:10;20.00;42.10
73121;DHT22;61307;49.628;-1.624;2023-03-11T18:51:38;20.00;42.10
73121;DHT22;61307;49.628;-1.624;2023-03-11T18:54:05;20.00;42.10
73121;DHT22;61307;49.628;-1.624;2023-03-11T18:56:32;20.00;42.10
73121;DHT22;61307;49.628;-1.624;2023-03-11T18:59:00;20.00;42.10
73121;DHT22;61307;49.628;-1.624;2023-03-11T19:01:27;20.00;42.10
73121;DHT22;61307;49.628;-1.624;2023-03-11T19:03:57;20.00;42.20
73121;DHT22;61307;49.628;-1.624;2023-03-11T19:06:25;20.00;42.20
73121;DHT22;61307;49.628;-1.624;2023-03-11T19:08:53;20.00;42.20
73121;DHT22;61307;49.628;-1.624;2023-03-11T19:11:23;20.00;42.20
73121;DHT22;61307;49.628;-1.624;2023-03-11T19:13:50;20.00;42.20
73121;DHT22;61307;49.628;-1.624;2023-03-11T19:16:20;20.00;42.30
73121;DHT22;61307;49.628;-1.624;2023-03-11T19:18:48;20.00;42.30
73121;DHT22;61307;49.628;-1.624;2023-03-11T19:21:17;19.90;42.20
73121;DHT22;61307;49.628;-1.624;2023-03-11T19:23:44;20.00;42.40
73121;DHT22;61307;49.628;-1.624;2023-03-11T19:26:13;19.90;42.30
73121;DHT22;61307;49.628;-1.624;2023-03-11T19:28:40;19.90;42.40
73121;DHT22;61307;49.628;-1.624;2023-03-11T19:31:07;19.90;42.40
73121;DHT22;61307;49.628;-1.624;2023-03-11T19:33:34;19.90;42.40
73121;DHT22;61307;49.628;-1.624;2023-03-11T19:36:03;19.90;42.50
73121;DHT22;61307;49.628;-1.624;2023-03-11T19:38:32;19.80;42.50
73121;DHT22;61307;49.628;-1.624;2023-03-11T19:41:01;19.80;42.60
73121;DHT22;61307;49.628;-1.624;2023-03-11T19:43:28;19.80;42.70
73121;DHT22;61307;49.628;-1.624;2023-03-11T19:45:56;19.80;42.70
73121;DHT22;61307;49.628;-1.624;2023-03-11T19:48:23;19.80;42.80
73121;DHT22;61307;49.628;-1.624;2023-03-11T19:50:51;19.70;42.70
73121;DHT22;61307;49.628;-1.624;2023-03-11T19:53:19;19.70;42.80
73121;DHT22;61307;49.628;-1.624;2023-03-11T19:55:50;19.70;42.80
73121;DHT22;61307;49.628;-1.624;2023-03-11T19:58:17;19.70;42.90
73121;DHT22;61307;49.628;-1.624;2023-03-11T20:00:45;19.70;43.00
73121;DHT22;61307;49.628;-1.624;2023-03-11T20:03:13;19.70;43.00
73121;DHT22;61307;49.628;-1.624;2023-03-11T20:05:42;19.70;43.70
73121;DHT22;61307;49.628;-1.624;2023-03-11T20:08:10;19.70;43.20
73121;DHT22;61307;49.628;-1.624;2023-03-11T20:10:39;19.60;43.10
73121;DHT22;61307;49.628;-1.624;2023-03-11T20:13:08;19.60;43.20
73121;DHT22;61307;49.628;-1.624;2023-03-11T20:15:35;19.60;43.30
73121;DHT22;61307;49.628;-1.624;2023-03-11T20:18:03;19.60;43.30
73121;DHT22;61307;49.628;-1.624;2023-03-11T20:20:31;19.60;43.40
73121;DHT22;61307;49.628;-1.624;2023-03-11T20:22:59;19.50;43.40
73121;DHT22;61307;49.628;-1.624;2023-03-11T20:25:27;19.50;43.50
73121;DHT22;61307;49.628;-1.624;2023-03-11T20:27:57;19.50;43.60
73121;DHT22;61307;49.628;-1.624;2023-03-11T20:30:26;19.50;43.60
73121;DHT22;61307;49.628;-1.624;2023-03-11T20:32:53;19.50;43.60
73121;DHT22;61307;49.628;-1.624;2023-03-11T20:35:20;19.40;43.70
73121;DHT22;61307;49.628;-1.624;2023-03-11T20:37:48;19.40;43.80
73121;DHT22;61307;49.628;-1.624;2023-03-11T20:40:16;19.40;43.90
73121;DHT22;61307;49.628;-1.624;2023-03-11T20:42:44;19.40;43.90
73121;DHT22;61307;49.628;-1.624;2023-03-11T20:45:12;19.40;44.00
73121;DHT22;61307;49.628;-1.624;2023-03-11T20:47:42;19.40;44.10
73121;DHT22;61307;49.628;-1.624;2023-03-11T20:50:11;19.40;44.10
73121;DHT22;61307;49.628;-1.624;2023-03-11T20:52:38;19.40;44.10
73121;DHT22;61307;49.628;-1.624;2023-03-11T20:55:06;19.30;44.10
73121;DHT22;61307;49.628;-1.624;2023-03-11T20:57:35;19.30;44.10
73121;DHT22;61307;49.628;-1.624;2023-03-11T21:00:03;19.30;44.30
73121;DHT22;61307;49.628;-1.624;2023-03-11T21:02:33;19.30;44.40
73121;DHT22;61307;49.628;-1.624;2023-03-11T21:05:01;19.20;44.20
73121;DHT22;61307;49.628;-1.624;2023-03-11T21:07:28;19.20;44.40
73121;DHT22;61307;49.628;-1.624;2023-03-11T21:09:55;19.30;44.50
73121;DHT22;61307;49.628;-1.624;2023-03-11T21:12:23;19.20;44.50
73121;DHT22;61307;49.628;-1.624;2023-03-11T21:14:50;19.20;44.60
73121;DHT22;61307;49.628;-1.624;2023-03-11T21:17:17;19.20;44.60
73121;DHT22;61307;49.628;-1.624;2023-03-11T21:19:44;19.20;44.70
73121;DHT22;61307;49.628;-1.624;2023-03-11T21:22:13;19.10;44.70
73121;DHT22;61307;49.628;-1.624;2023-03-11T21:24:40;19.10;44.70
73121;DHT22;61307;49.628;-1.624;2023-03-11T21:27:07;19.20;44.90
73121;DHT22;61307;49.628;-1.624;2023-03-11T21:29:34;19.10;44.80
73121;DHT22;61307;49.628;-1.624;2023-03-11T21:32:01;19.10;44.90
73121;DHT22;61307;49.628;-1.624;2023-03-11T21:34:29;19.10;45.00
73121;DHT22;61307;49.628;-1.624;2023-03-11T21:36:56;19.10;45.00
73121;DHT22;61307;49.628;-1.624;2023-03-11T21:39:24;19.10;45.20
73121;DHT22;61307;49.628;-1.624;2023-03-11T21:41:52;19.10;45.30
73121;DHT22;61307;49.628;-1.624;2023-03-11T21:44:21;19.10;45.30
73121;DHT22;61307;49.628;-1.624;2023-03-11T21:46:48;19.10;45.20
73121;DHT22;61307;49.628;-1.624;2023-03-11T21:49:15;19.10;45.30
73121;DHT22;61307;49.628;-1.624;2023-03-11T21:51:42;19.00;45.30
73121;DHT22;61307;49.628;-1.624;2023-03-11T21:54:09;19.10;45.40
73121;DHT22;61307;49.628;-1.624;2023-03-11T21:56:38;19.00;46.00
73121;DHT22;61307;49.628;-1.624;2023-03-11T21:59:06;19.00;45.30
73121;DHT22;61307;49.628;-1.624;2023-03-11T22:01:33;19.00;45.30
73121;DHT22;61307;49.628;-1.624;2023-03-11T22:04:00;19.00;45.30
73121;DHT22;61307;49.628;-1.624;2023-03-11T22:06:28;19.00;45.40
73121;DHT22;61307;49.628;-1.624;2023-03-11T22:08:57;19.00;45.40
73121;DHT22;61307;49.628;-1.624;2023-03-11T22:11:25;18.90;45.30
73121;DHT22;61307;49.628;-1.624;2023-03-11T22:13:54;19.00;45.40
73121;DHT22;61307;49.628;-1.624;2023-03-11T22:16:23;18.90;45.30
73121;DHT22;61307;49.628;-1.624;2023-03-11T22:18:50;18.90;45.30
73121;DHT22;61307;49.628;-1.624;2023-03-11T22:21:18;18.90;45.40
73121;DHT22;61307;49.628;-1.624;2023-03-11T22:23:46;18.90;45.40
73121;DHT22;61307;49.628;-1.624;2023-03-11T22:26:14;18.90;45.50
73121;DHT22;61307;49.628;-1.624;2023-03-11T22:28:41;18.90;45.50
73121;DHT22;61307;49.628;-1.624;2023-03-11T22:31:11;18.90;45.60
73121;DHT22;61307;49.628;-1.624;2023-03-11T22:33:39;18.90;45.80
73121;DHT22;61307;49.628;-1.624;2023-03-11T22:36:07;18.90;45.70
73121;DHT22;61307;49.628;-1.624;2023-03-11T22:38:34;18.90;45.60
73121;DHT22;61307;49.628;-1.624;2023-03-11T22:41:04;18.90;45.80
73121;DHT22;61307;49.628;-1.624;2023-03-11T22:43:32;18.90;45.80
73121;DHT22;61307;49.628;-1.624;2023-03-11T22:45:59;18.90;45.90
73121;DHT22;61307;49.628;-1.624;2023-03-11T22:48:28;18.90;45.90
73121;DHT22;61307;49.628;-1.624;2023-03-11T22:50:55;18.80;46.00
73121;DHT22;61307;49.628;-1.624;2023-03-11T22:53:23;18.80;45.80
73121;DHT22;61307;49.628;-1.624;2023-03-11T22:55:50;18.80;46.00
73121;DHT22;61307;49.628;-1.624;2023-03-11T22:58:18;18.80;46.00
73121;DHT22;61307;49.628;-1.624;2023-03-11T23:00:45;18.80;46.10
73121;DHT22;61307;49.628;-1.624;2023-03-11T23:03:13;18.80;46.10
73121;DHT22;61307;49.628;-1.624;2023-03-11T23:05:41;18.80;46.20
73121;DHT22;61307;49.628;-1.624;2023-03-11T23:08:11;18.80;46.20
73121;DHT22;61307;49.628;-1.624;2023-03-11T23:10:39;18.80;46.30
73121;DHT22;61307;49.628;-1.624;2023-03-11T23:13:06;18.80;46.30
73121;DHT22;61307;49.628;-1.624;2023-03-11T23:15:34;18.70;46.30
73121;DHT22;61307;49.628;-1.624;2023-03-11T23:18:01;18.70;46.20
73121;DHT22;61307;49.628;-1.624;2023-03-11T23:20:28;18.70;46.30
73121;DHT22;61307;49.628;-1.624;2023-03-11T23:22:56;18.70;46.30
73121;DHT22;61307;49.628;-1.624;2023-03-11T23:25:24;18.70;46.30
73121;DHT22;61307;49.628;-1.624;2023-03-11T23:27:51;18.70;46.30
73121;DHT22;61307;49.628;-1.624;2023-03-11T23:30:18;18.70;46.50
73121;DHT22;61307;49.628;-1.624;2023-03-11T23:32:45;18.70;46.40
73121;DHT22;61307;49.628;-1.624;2023-03-11T23:35:12;18.70;46.50
73121;DHT22;61307;49.628;-1.624;2023-03-11T23:37:39;18.70;47.10
73121;DHT22;61307;49.628;-1.624;2023-03-11T23:40:10;18.60;46.40
73121;DHT22;61307;49.628;-1.624;2023-03-11T23:42:37;18.70;46.50
73121;DHT22;61307;49.628;-1.624;2023-03-11T23:45:05;18.70;47.10
73121;DHT22;61307;49.628;-1.624;2023-03-11T23:47:32;18.60;46.40
73121;DHT22;61307;49.628;-1.624;2023-03-11T23:49:59;18.70;46.60
73121;DHT22;61307;49.628;-1.624;2023-03-11T23:52:26;18.60;46.40
73121;DHT22;61307;49.628;-1.624;2023-03-11T23:54:54;18.60;46.50
73121;DHT22;61307;49.628;-1.624;2023-03-11T23:57:23;18.70;46.60
73121;DHT22;61307;49.628;-1.624;2023-03-11T23:59:50;18.60;46.60
